createdAt,value
2023-05-19T00:29:04.645Z,1.10
2023-05-19T00:31:32.985Z,1.27
2023-05-19T00:34:02.425Z,1.23
2023-05-19T00:36:30.998Z,1.30
2023-05-19T00:38:59.459Z,1.13
2023-05-19T00:41:27.929Z,0.98
2023-05-19T00:43:56.595Z,2.35
2023-05-19T00:46:26.485Z,0.47
2023-05-19T00:48:54.915Z,1.20
2023-05-19T00:51:31.421Z,0.70
2023-05-19T00:54:00.329Z,1.02
2023-05-19T00:56:28.568Z,3.00
2023-05-19T00:58:57.870Z,1.60
2023-05-19T01:01:26.951Z,0.82
2023-05-19T01:03:55.663Z,0.40
2023-05-19T01:08:52.359Z,2.10
2023-05-19T01:13:48.812Z,0.93
2023-05-19T01:16:49.066Z,2.08
2023-05-19T01:19:35.460Z,0.60
2023-05-19T01:22:13.681Z,2.22
2023-05-19T01:24:45.477Z,0.63
2023-05-19T01:27:24.226Z,2.22
2023-05-19T01:30:24.520Z,0.85
2023-05-19T01:32:57.847Z,0.75
2023-05-19T01:35:27.824Z,1.27
2023-05-19T01:38:01.100Z,0.50
2023-05-19T01:40:31.743Z,0.95
2023-05-19T01:43:02.051Z,1.40
2023-05-19T01:45:33.032Z,0.85
2023-05-19T01:48:04.014Z,0.57
2023-05-19T01:50:34.404Z,0.68
2023-05-19T01:53:03.190Z,0.98
2023-05-19T01:55:31.458Z,1.63
2023-05-19T01:58:26.542Z,3.13
2023-05-19T02:00:59.098Z,2.40
2023-05-19T02:03:42.724Z,1.50
2023-05-19T02:06:26.694Z,1.60
2023-05-19T02:09:13.899Z,1.42
2023-05-19T02:12:21.020Z,2.42
2023-05-19T02:15:04.015Z,2.78
2023-05-19T02:17:38.609Z,1.95
2023-05-19T02:20:08.300Z,3.10
2023-05-19T02:22:37.315Z,1.50
2023-05-19T02:25:05.868Z,0.93
2023-05-19T02:30:05.296Z,1.20
2023-05-19T02:32:34.365Z,0.75
2023-05-19T02:35:04.152Z,0.85
2023-05-19T02:37:32.691Z,3.17
2023-05-19T02:40:03.141Z,1.65
2023-05-19T02:42:32.475Z,1.65
2023-05-19T02:45:01.317Z,1.58
2023-05-19T02:47:30.121Z,1.67
2023-05-19T02:49:58.698Z,1.38
2023-05-19T02:52:27.182Z,1.52
2023-05-19T02:54:55.529Z,2.75
2023-05-19T02:57:23.855Z,0.90
2023-05-19T02:59:52.372Z,2.30
2023-05-19T03:02:20.701Z,2.20
2023-05-19T03:04:54.403Z,0.47
2023-05-19T03:07:22.828Z,3.17
2023-05-19T03:09:53.545Z,2.75
2023-05-19T03:12:22.487Z,3.47
2023-05-19T03:17:18.881Z,1.20
2023-05-19T03:19:47.753Z,1.33
2023-05-19T03:22:17.530Z,2.08
2023-05-19T03:24:48.260Z,2.13
2023-05-19T03:27:17.126Z,2.70
2023-05-19T03:32:20.130Z,2.80
2023-05-19T03:34:48.992Z,1.80
2023-05-19T03:37:17.357Z,1.92
2023-05-19T03:39:46.390Z,2.58
2023-05-19T03:44:45.777Z,1.77
2023-05-19T03:47:16.057Z,2.00
2023-05-19T03:50:05.923Z,1.15
2023-05-19T03:52:49.654Z,3.10
2023-05-19T03:55:29.516Z,1.17
2023-05-19T03:57:59.223Z,1.25
2023-05-19T04:00:27.484Z,2.60
2023-05-19T04:02:56.076Z,1.92
2023-05-19T04:05:24.688Z,2.85
2023-05-19T04:07:55.145Z,2.53
2023-05-19T04:10:25.048Z,2.10
2023-05-19T04:12:55.904Z,2.75
2023-05-19T04:17:52.885Z,3.55
2023-05-19T04:20:28.996Z,2.60
2023-05-19T04:22:57.771Z,1.20
2023-05-19T04:25:26.177Z,3.35
2023-05-19T04:27:54.961Z,1.50
2023-05-19T04:30:24.827Z,1.50
2023-05-19T04:32:53.960Z,1.77
2023-05-19T04:35:26.759Z,0.82
2023-05-19T04:37:56.773Z,1.55
2023-05-19T04:40:30.874Z,1.90
2023-05-19T04:42:59.376Z,1.15
2023-05-19T04:45:28.274Z,2.28
2023-05-19T04:48:00.663Z,1.30
2023-05-19T04:50:29.406Z,2.30
2023-05-19T04:52:58.778Z,1.10
2023-05-19T04:55:27.615Z,2.10
2023-05-19T04:57:59.507Z,1.02
2023-05-19T05:00:29.073Z,1.13
2023-05-19T05:03:01.080Z,1.08
2023-05-19T05:05:40.401Z,2.05
2023-05-19T05:08:11.570Z,1.65
2023-05-19T05:10:43.880Z,2.55
2023-05-19T05:13:12.845Z,3.40
2023-05-19T05:15:41.739Z,1.27
2023-05-19T05:18:13.838Z,2.08
2023-05-19T05:20:46.630Z,1.85
2023-05-19T05:23:16.924Z,1.45
2023-05-19T05:25:48.415Z,0.95
2023-05-19T05:28:18.131Z,0.95
2023-05-19T05:30:48.156Z,1.38
2023-05-19T05:33:17.222Z,1.85
2023-05-19T05:35:46.324Z,2.30
2023-05-19T05:38:16.365Z,1.27
2023-05-19T05:40:45.422Z,2.42
2023-05-19T05:43:13.669Z,0.90
2023-05-19T05:45:48.262Z,1.10
2023-05-19T05:50:45.890Z,1.50
2023-05-19T05:53:21.724Z,1.58
2023-05-19T05:55:53.701Z,2.33
2023-05-19T05:58:25.470Z,0.93
2023-05-19T06:00:53.742Z,1.20
2023-05-19T06:03:22.502Z,0.95
2023-05-19T06:05:54.019Z,2.03
2023-05-19T06:08:28.438Z,1.42
2023-05-19T06:10:56.923Z,1.55
2023-05-19T06:13:25.663Z,2.95
2023-05-19T06:15:54.074Z,1.15
2023-05-19T06:18:32.404Z,1.73
2023-05-19T06:21:01.952Z,2.08
2023-05-19T06:23:31.764Z,1.27
2023-05-19T06:26:01.868Z,1.42
2023-05-19T06:28:31.453Z,1.23
2023-05-19T06:31:00.187Z,1.10
2023-05-19T06:33:40.970Z,1.63
2023-05-19T06:36:09.578Z,0.82
2023-05-19T06:38:40.127Z,0.57
2023-05-19T06:41:08.550Z,0.90
2023-05-19T06:43:46.359Z,0.95
2023-05-19T06:46:15.841Z,0.50
2023-05-19T06:48:44.644Z,1.67
2023-05-19T06:51:12.939Z,0.52
2023-05-19T06:53:51.773Z,2.38
2023-05-19T06:56:20.216Z,0.88
2023-05-19T06:58:48.509Z,0.40
2023-05-19T07:01:17.873Z,0.90
2023-05-19T07:03:59.319Z,0.73
2023-05-19T07:06:29.190Z,1.20
2023-05-19T07:08:57.757Z,0.77
2023-05-19T07:11:26.702Z,0.70
2023-05-19T07:16:28.218Z,0.43
2023-05-19T07:18:57.093Z,0.88
2023-05-19T07:21:25.830Z,2.83
2023-05-19T07:23:53.956Z,0.90
2023-05-19T07:26:22.219Z,0.95
2023-05-19T07:28:51.754Z,0.85
2023-05-19T07:31:20.098Z,5.43
2023-05-19T07:33:48.244Z,2.42
2023-05-19T07:36:16.703Z,1.60
2023-05-19T07:38:45.969Z,3.20
2023-05-19T07:41:16.304Z,1.63
2023-05-19T07:43:51.473Z,1.20
2023-05-19T07:46:21.220Z,1.05
2023-05-19T07:49:09.786Z,1.80
2023-05-19T07:51:38.562Z,2.53
2023-05-19T07:54:09.072Z,1.35
2023-05-19T07:56:37.714Z,1.10
2023-05-19T07:59:06.614Z,2.15
2023-05-19T08:01:42.316Z,2.28
2023-05-19T08:04:13.604Z,1.27
2023-05-19T08:06:45.667Z,1.13
2023-05-19T08:09:22.000Z,3.65
2023-05-19T08:11:50.726Z,3.78
2023-05-19T08:14:19.494Z,2.92
2023-05-19T08:16:48.081Z,6.38
2023-05-19T08:19:16.556Z,6.97
2023-05-19T08:21:46.790Z,7.15
2023-05-19T08:24:15.211Z,5.20
2023-05-19T08:26:45.181Z,6.78
2023-05-19T08:29:14.803Z,2.78
2023-05-19T08:32:06.285Z,3.75
2023-05-19T08:34:36.402Z,7.45
2023-05-19T08:37:04.794Z,6.15
2023-05-19T08:39:33.507Z,6.75
2023-05-19T08:42:08.530Z,6.10
2023-05-19T08:44:45.942Z,5.47
2023-05-19T08:47:15.813Z,6.43
2023-05-19T08:49:47.546Z,6.18
2023-05-19T08:52:42.036Z,6.05
2023-05-19T08:55:15.377Z,6.25
2023-05-19T08:57:47.419Z,7.72
2023-05-19T09:00:17.119Z,6.90
2023-05-19T09:02:55.161Z,6.07
2023-05-19T09:05:30.099Z,7.75
2023-05-19T09:07:58.414Z,6.53
2023-05-19T09:10:27.308Z,5.55
2023-05-19T09:12:57.684Z,4.70
2023-05-19T09:18:12.764Z,6.72
2023-05-19T09:20:45.205Z,4.57
2023-05-19T09:23:17.839Z,6.93
2023-05-19T09:25:51.068Z,7.85
2023-05-19T09:28:29.687Z,4.68
2023-05-19T09:31:10.842Z,3.58
2023-05-19T09:33:42.186Z,3.17
2023-05-19T09:36:11.994Z,3.65
2023-05-19T09:38:40.519Z,4.97
2023-05-19T09:41:09.366Z,4.35
2023-05-19T09:43:37.724Z,4.85
2023-05-19T09:46:08.608Z,3.97
2023-05-19T09:48:38.880Z,2.78
2023-05-19T09:51:09.451Z,2.88
2023-05-19T09:53:40.072Z,4.45
2023-05-19T09:56:10.468Z,2.47
2023-05-19T09:58:42.149Z,3.15
2023-05-19T10:01:10.781Z,2.78
2023-05-19T10:06:08.608Z,3.97
2023-05-19T10:08:38.208Z,3.13
2023-05-19T10:11:08.103Z,4.57
2023-05-19T10:13:37.389Z,8.65
2023-05-19T10:16:07.420Z,11.80
2023-05-19T10:18:39.605Z,8.85
2023-05-19T10:21:09.280Z,6.80
2023-05-19T10:23:38.322Z,6.78
2023-05-19T10:26:07.857Z,6.22
2023-05-19T10:28:40.601Z,7.57
2023-05-19T10:31:14.073Z,5.80
2023-05-19T10:34:10.857Z,6.13
2023-05-19T10:36:50.221Z,6.85
2023-05-19T10:39:28.981Z,3.95
2023-05-19T10:42:16.084Z,4.60
2023-05-19T10:45:19.149Z,4.20
2023-05-19T10:47:48.225Z,4.50
2023-05-19T10:50:16.776Z,4.18
2023-05-19T10:52:45.050Z,4.63
2023-05-19T10:55:15.740Z,5.30
2023-05-19T10:58:04.155Z,4.25
2023-05-19T11:00:32.786Z,2.78
2023-05-19T11:05:52.553Z,4.63
2023-05-19T11:08:33.532Z,5.20
2023-05-19T11:11:17.703Z,8.00
2023-05-19T11:13:52.370Z,6.15
2023-05-19T11:16:32.500Z,5.70
2023-05-19T11:19:01.495Z,6.15
2023-05-19T11:21:48.911Z,7.85
2023-05-19T11:24:38.240Z,7.82
2023-05-19T11:27:35.271Z,7.13
2023-05-19T11:30:06.951Z,9.40
2023-05-19T11:32:36.785Z,6.38
2023-05-19T11:35:05.462Z,4.18
2023-05-19T11:37:34.355Z,7.60
2023-05-19T11:40:04.074Z,6.47
2023-05-19T11:42:33.178Z,6.90
2023-05-19T11:47:41.992Z,9.38
2023-05-19T11:50:14.128Z,5.57
2023-05-19T11:52:46.779Z,5.30
2023-05-19T11:55:20.303Z,6.30
2023-05-19T11:58:05.970Z,6.10
2023-05-19T12:00:39.971Z,5.50
2023-05-19T12:03:11.193Z,6.53
2023-05-19T12:05:45.720Z,4.82
2023-05-19T12:08:14.939Z,5.70
2023-05-19T12:13:11.560Z,5.68
2023-05-19T12:15:41.149Z,4.50
2023-05-19T12:18:12.389Z,4.68
2023-05-19T12:20:51.464Z,5.88
2023-05-19T12:23:20.874Z,3.67
2023-05-19T12:25:50.055Z,5.35
2023-05-19T12:28:20.062Z,5.93
2023-05-19T12:30:51.705Z,4.28
2023-05-19T12:33:21.148Z,3.75
2023-05-19T12:35:53.678Z,4.95
2023-05-19T12:38:23.007Z,3.83
2023-05-19T12:40:51.978Z,4.10
2023-05-19T12:43:25.853Z,3.25
2023-05-19T12:45:54.396Z,3.58
2023-05-19T12:48:25.573Z,3.80
2023-05-19T12:54:48.026Z,3.95
2023-05-19T12:57:19.855Z,5.90
2023-05-19T12:59:48.789Z,3.33
2023-05-19T13:02:19.146Z,4.95
2023-05-19T13:04:47.743Z,5.88
2023-05-19T13:07:17.078Z,3.15
2023-05-19T13:09:47.271Z,4.05
2023-05-19T13:12:17.003Z,4.63
2023-05-19T13:14:48.586Z,4.32
2023-05-19T13:17:17.083Z,2.72
2023-05-19T13:19:51.150Z,4.18
2023-05-19T13:22:20.988Z,3.20
2023-05-19T13:41:32.525Z,1.63
2023-05-19T13:46:44.017Z,2.83
2023-05-19T13:49:13.881Z,4.05
2023-05-19T13:51:45.057Z,2.65
2023-05-19T13:54:14.855Z,2.42
2023-05-19T13:56:43.382Z,2.00
2023-05-19T13:59:11.885Z,3.08
2023-05-19T14:01:40.281Z,3.10
2023-05-19T14:04:08.661Z,2.75
2023-05-19T14:06:37.397Z,3.17
2023-05-19T14:09:06.354Z,1.38
2023-05-19T14:11:34.863Z,1.20
2023-05-19T14:14:03.277Z,1.95
2023-05-19T14:16:31.859Z,1.75
2023-05-19T14:19:09.340Z,2.75
2023-05-19T14:21:38.932Z,2.55
2023-05-19T14:24:08.191Z,1.52
2023-05-19T14:26:36.833Z,1.52
2023-05-19T14:31:38.750Z,2.38
2023-05-19T14:34:09.958Z,1.88
2023-05-19T14:36:38.607Z,1.95
2023-05-19T14:39:06.946Z,1.75
2023-05-19T14:41:39.141Z,0.80
2023-05-19T14:44:07.765Z,1.83
2023-05-19T14:46:37.035Z,3.30
2023-05-19T14:49:08.252Z,1.20
2023-05-19T14:51:48.498Z,1.73
2023-05-19T14:54:19.992Z,2.00
2023-05-19T14:56:51.178Z,1.48
2023-05-19T14:59:19.662Z,1.50
2023-05-19T15:01:50.978Z,2.53
2023-05-19T15:04:20.908Z,2.03
2023-05-19T15:06:58.244Z,1.50
2023-05-19T15:09:39.573Z,1.67
2023-05-19T15:14:51.257Z,0.68
2023-05-19T15:17:20.664Z,1.77
2023-05-19T15:19:57.739Z,1.08
2023-05-19T15:22:31.242Z,1.23
2023-05-19T15:25:00.191Z,2.03
2023-05-19T15:27:30.285Z,2.47
2023-05-19T15:29:58.718Z,1.17
2023-05-19T15:32:28.917Z,1.13
2023-05-19T15:34:58.538Z,1.02
2023-05-19T15:40:11.851Z,1.42
2023-05-19T15:43:05.229Z,0.73
2023-05-19T15:45:34.265Z,0.70
2023-05-19T15:48:02.773Z,0.60
2023-05-19T15:50:31.173Z,3.08
2023-05-19T15:53:01.596Z,2.25
2023-05-19T15:55:37.364Z,0.65
2023-05-19T15:58:06.444Z,2.60
2023-05-19T16:00:38.478Z,1.77
2023-05-19T16:03:07.133Z,0.70
2023-05-19T16:05:35.938Z,2.50
2023-05-19T16:08:05.508Z,0.80
2023-05-19T16:10:37.502Z,1.45
2023-05-19T16:13:07.852Z,0.77
2023-05-19T16:15:37.704Z,0.68
2023-05-19T16:18:06.199Z,1.58
2023-05-19T16:20:36.722Z,1.02
2023-05-19T16:23:12.037Z,1.80
2023-05-19T16:25:42.278Z,1.63
2023-05-19T16:28:19.303Z,1.08
2023-05-19T16:30:48.490Z,3.95
2023-05-19T16:33:21.673Z,3.10
2023-05-19T16:35:54.730Z,1.55
2023-05-19T16:38:26.188Z,3.17
2023-05-19T16:40:55.185Z,1.98
2023-05-19T16:43:24.663Z,1.30
2023-05-19T16:45:58.305Z,1.95
2023-05-19T16:48:38.815Z,1.30
2023-05-19T16:51:25.213Z,0.40
2023-05-19T16:53:59.907Z,1.67
2023-05-19T16:56:29.784Z,1.98
2023-05-19T16:58:58.755Z,1.15
2023-05-19T17:01:30.054Z,0.45
2023-05-19T17:03:59.417Z,2.08
2023-05-19T17:06:27.732Z,1.83
2023-05-19T17:08:56.016Z,0.98
2023-05-19T17:11:24.327Z,0.95
2023-05-19T17:13:52.667Z,1.08
2023-05-19T17:16:31.951Z,2.28
2023-05-19T17:19:00.753Z,2.70
2023-05-19T17:21:31.220Z,3.00
2023-05-19T17:24:00.631Z,6.25
2023-05-19T17:26:29.194Z,4.05
2023-05-19T17:29:20.538Z,5.07
2023-05-19T17:31:48.930Z,4.68
2023-05-19T17:34:17.333Z,3.10
2023-05-19T17:36:49.203Z,1.75
2023-05-19T17:39:17.510Z,2.78
2023-05-19T17:41:47.442Z,1.45
2023-05-19T17:44:19.077Z,1.90
2023-05-19T17:46:48.670Z,2.92
2023-05-19T17:49:17.472Z,1.77
2023-05-19T17:51:55.848Z,4.38
2023-05-19T17:57:20.642Z,2.60
2023-05-19T17:59:52.797Z,1.65
2023-05-19T18:02:25.383Z,2.85
2023-05-19T18:04:54.292Z,1.52
2023-05-19T18:07:25.514Z,1.02
2023-05-19T18:09:56.713Z,3.33
2023-05-19T18:14:01.529Z,2.03
2023-05-19T18:16:29.954Z,1.83
2023-05-19T18:18:59.497Z,1.38
2023-05-19T18:21:27.890Z,3.38
2023-05-19T18:24:03.711Z,2.05
2023-05-19T18:26:32.695Z,1.45
2023-05-19T18:29:02.285Z,1.52
2023-05-19T18:31:36.763Z,2.35
2023-05-19T18:34:05.373Z,1.40
2023-05-19T18:36:33.626Z,1.48
2023-05-19T18:39:04.712Z,1.60
2023-05-19T18:41:34.324Z,1.17
2023-05-19T18:44:02.854Z,1.08
2023-05-19T18:46:53.287Z,1.70
2023-05-19T18:49:26.631Z,3.03
2023-05-19T18:51:57.070Z,1.15
2023-05-19T18:54:30.697Z,2.10
2023-05-19T18:57:02.634Z,0.77
2023-05-19T18:59:41.961Z,1.27
2023-05-19T19:02:15.260Z,1.45
2023-05-19T19:04:44.023Z,2.35
2023-05-19T19:09:40.392Z,1.10
2023-05-19T19:12:08.884Z,2.10
2023-05-19T19:14:37.513Z,0.80
2023-05-19T19:17:14.860Z,1.45
2023-05-19T19:19:43.533Z,0.70
2023-05-19T19:22:12.257Z,2.97
2023-05-19T19:24:43.039Z,1.48
2023-05-19T19:27:11.783Z,1.17
2023-05-19T19:29:40.542Z,1.30
2023-05-19T19:32:13.439Z,3.20
2023-05-19T19:34:42.303Z,2.75
2023-05-19T19:37:10.939Z,2.70
2023-05-19T19:39:48.187Z,5.05
2023-05-19T19:42:18.268Z,2.65
2023-05-19T19:44:56.290Z,3.22
2023-05-19T19:47:25.184Z,2.75
2023-05-19T19:54:11.172Z,2.25
2023-05-19T19:56:41.192Z,3.05
2023-05-19T19:59:19.283Z,1.92
2023-05-19T20:01:55.756Z,1.65
2023-05-19T20:04:33.036Z,2.70
2023-05-19T20:07:10.153Z,2.30
2023-05-19T20:09:39.065Z,2.75
2023-05-19T20:12:09.929Z,2.38
2023-05-19T20:14:40.319Z,3.20
2023-05-19T20:17:11.474Z,2.53
2023-05-19T20:19:45.709Z,1.95
2023-05-19T20:22:16.591Z,2.78
2023-05-19T20:24:45.415Z,1.70
2023-05-19T20:27:18.821Z,3.03
2023-05-19T20:29:49.891Z,1.70
2023-05-19T20:32:24.405Z,1.75
2023-05-19T20:34:53.199Z,2.03
2023-05-19T20:39:53.864Z,1.42
2023-05-19T20:42:22.345Z,2.33
2023-05-19T20:44:51.023Z,1.92
2023-05-19T20:47:22.565Z,2.15
2023-05-19T20:49:51.163Z,1.73
2023-05-19T20:52:19.874Z,1.15
2023-05-19T20:57:21.140Z,1.52
2023-05-19T20:59:55.436Z,1.85
2023-05-19T21:02:33.561Z,2.00
2023-05-19T21:05:02.080Z,3.08
2023-05-19T21:07:32.409Z,1.45
2023-05-19T21:10:07.612Z,1.92
2023-05-19T21:12:36.366Z,1.05
2023-05-19T21:15:06.349Z,0.50
2023-05-19T21:17:35.109Z,1.25
2023-05-19T21:22:35.168Z,2.15
2023-05-19T21:25:04.202Z,1.10
2023-05-19T21:27:36.611Z,1.40
2023-05-19T21:30:08.729Z,1.35
2023-05-19T21:32:37.209Z,1.35
2023-05-19T21:35:06.248Z,1.55
2023-05-19T21:37:50.047Z,1.42
2023-05-19T21:40:19.780Z,1.55
2023-05-19T21:42:51.686Z,1.85
2023-05-19T21:45:23.751Z,1.35
2023-05-19T21:47:56.168Z,1.50
2023-05-19T21:50:26.996Z,0.93
2023-05-19T21:52:58.813Z,2.00
2023-05-19T21:55:29.009Z,1.38
2023-05-19T21:58:00.307Z,1.10
2023-05-19T22:00:40.110Z,2.65
2023-05-19T22:03:14.964Z,2.35
2023-05-19T22:05:54.563Z,1.10
2023-05-19T22:08:25.266Z,2.17
2023-05-19T22:10:58.267Z,1.85
2023-05-19T22:13:30.383Z,2.00
2023-05-19T22:16:00.900Z,1.48
2023-05-19T22:18:29.404Z,1.45
2023-05-19T22:20:59.579Z,2.25
2023-05-19T22:23:28.229Z,2.00
2023-05-19T22:28:30.916Z,1.08
2023-05-19T22:31:01.453Z,1.35
2023-05-19T22:33:30.118Z,2.13
2023-05-19T22:36:05.097Z,1.77
2023-05-19T22:38:35.898Z,1.13
2023-05-19T22:41:04.604Z,1.95
2023-05-19T22:43:33.290Z,0.95
2023-05-19T22:46:02.122Z,0.80
2023-05-19T22:48:31.064Z,1.58
2023-05-19T22:51:01.162Z,3.03
2023-05-19T22:53:38.770Z,2.83
2023-05-19T22:56:07.782Z,1.00
2023-05-19T22:58:36.447Z,0.60
2023-05-19T23:01:05.328Z,0.75
2023-05-19T23:03:36.777Z,0.77
2023-05-19T23:06:07.178Z,0.95
2023-05-19T23:08:37.229Z,1.65
2023-05-19T23:11:10.717Z,1.30
2023-05-19T23:13:54.878Z,1.42
2023-05-19T23:16:24.467Z,1.42
2023-05-19T23:18:53.257Z,1.85
2023-05-19T23:23:51.113Z,1.80
2023-05-19T23:26:19.572Z,0.90
2023-05-19T23:28:48.110Z,3.10
2023-05-19T23:31:16.605Z,0.82
2023-05-19T23:33:45.141Z,1.30
2023-05-19T23:36:15.033Z,1.08
2023-05-19T23:38:44.594Z,1.88
2023-05-19T23:43:41.125Z,1.52
2023-05-19T23:46:09.830Z,1.00
2023-05-19T23:51:06.724Z,1.23
2023-05-19T23:53:36.379Z,1.98
2023-05-19T23:56:06.032Z,1.48
2023-05-19T23:58:34.399Z,1.52
